sensor_id;sensor_type;location;lat;lon;timestamp;P1;durP1;ratioP1;P2;durP2;ratioP2
16862;SDS011;52193;48.216;-1.698;2023-04-03T00:01:26;5.72;;;3.50;;
16862;SDS011;52193;48.216;-1.698;2023-04-03T00:03:54;6.93;;;3.50;;
16862;SDS011;52193;48.216;-1.698;2023-04-03T00:06:21;6.40;;;3.70;;
16862;SDS011;52193;48.216;-1.698;2023-04-03T00:08:48;5.85;;;3.80;;
16862;SDS011;52193;48.216;-1.698;2023-04-03T00:11:17;7.25;;;4.03;;
16862;SDS011;52193;48.216;-1.698;2023-04-03T00:13:44;7.65;;;4.05;;
16862;SDS011;52193;48.216;-1.698;2023-04-03T00:16:11;6.13;;;3.50;;
16862;SDS011;52193;48.216;-1.698;2023-04-03T00:18:39;6.32;;;3.50;;
16862;SDS011;52193;48.216;-1.698;2023-04-03T00:21:06;5.60;;;3.40;;
16862;SDS011;52193;48.216;-1.698;2023-04-03T00:23:33;5.57;;;3.40;;
16862;SDS011;52193;48.216;-1.698;2023-04-03T00:26:00;6.07;;;3.63;;
16862;SDS011;52193;48.216;-1.698;2023-04-03T00:28:29;5.03;;;3.20;;
16862;SDS011;52193;48.216;-1.698;2023-04-03T00:30:56;7.15;;;3.78;;
16862;SDS011;52193;48.216;-1.698;2023-04-03T00:33:23;5.77;;;3.50;;
16862;SDS011;52193;48.216;-1.698;2023-04-03T00:35:50;6.28;;;3.40;;
16862;SDS011;52193;48.216;-1.698;2023-04-03T00:38:17;6.38;;;3.15;;
16862;SDS011;52193;48.216;-1.698;2023-04-03T00:40:45;6.15;;;3.38;;
16862;SDS011;52193;48.216;-1.698;2023-04-03T00:43:15;7.50;;;3.58;;
16862;SDS011;52193;48.216;-1.698;2023-04-03T00:45:45;8.10;;;3.88;;
16862;SDS011;52193;48.216;-1.698;2023-04-03T00:48:13;5.50;;;3.28;;
16862;SDS011;52193;48.216;-1.698;2023-04-03T00:50:44;8.80;;;3.67;;
16862;SDS011;52193;48.216;-1.698;2023-04-03T00:53:15;6.38;;;3.35;;
16862;SDS011;52193;48.216;-1.698;2023-04-03T00:55:45;5.35;;;3.50;;
16862;SDS011;52193;48.216;-1.698;2023-04-03T00:58:14;7.18;;;3.78;;
16862;SDS011;52193;48.216;-1.698;2023-04-03T01:00:46;6.05;;;3.45;;
16862;SDS011;52193;48.216;-1.698;2023-04-03T01:03:21;7.90;;;3.65;;
16862;SDS011;52193;48.216;-1.698;2023-04-03T01:05:48;6.20;;;3.22;;
16862;SDS011;52193;48.216;-1.698;2023-04-03T01:08:15;6.80;;;3.72;;
16862;SDS011;52193;48.216;-1.698;2023-04-03T01:10:42;6.72;;;3.33;;
16862;SDS011;52193;48.216;-1.698;2023-04-03T01:13:23;8.90;;;3.80;;
16862;SDS011;52193;48.216;-1.698;2023-04-03T01:15:53;7.72;;;4.00;;
16862;SDS011;52193;48.216;-1.698;2023-04-03T01:18:21;8.43;;;4.05;;
16862;SDS011;52193;48.216;-1.698;2023-04-03T01:23:53;7.78;;;3.67;;
16862;SDS011;52193;48.216;-1.698;2023-04-03T01:26:31;8.10;;;3.63;;
16862;SDS011;52193;48.216;-1.698;2023-04-03T01:28:59;7.72;;;3.38;;
16862;SDS011;52193;48.216;-1.698;2023-04-03T01:31:28;7.68;;;3.70;;
16862;SDS011;52193;48.216;-1.698;2023-04-03T01:34:00;6.35;;;3.60;;
16862;SDS011;52193;48.216;-1.698;2023-04-03T01:36:28;6.82;;;3.42;;
16862;SDS011;52193;48.216;-1.698;2023-04-03T01:38:56;7.75;;;3.63;;
16862;SDS011;52193;48.216;-1.698;2023-04-03T01:41:25;6.93;;;3.70;;
16862;SDS011;52193;48.216;-1.698;2023-04-03T01:43:52;8.85;;;3.58;;
16862;SDS011;52193;48.216;-1.698;2023-04-03T01:46:19;7.50;;;3.60;;
16862;SDS011;52193;48.216;-1.698;2023-04-03T01:48:47;6.30;;;3.40;;
16862;SDS011;52193;48.216;-1.698;2023-04-03T01:51:15;7.50;;;3.20;;
16862;SDS011;52193;48.216;-1.698;2023-04-03T01:53:43;7.13;;;3.25;;
16862;SDS011;52193;48.216;-1.698;2023-04-03T01:56:10;7.95;;;3.72;;
16862;SDS011;52193;48.216;-1.698;2023-04-03T01:58:37;8.27;;;3.85;;
16862;SDS011;52193;48.216;-1.698;2023-04-03T02:01:04;5.82;;;3.40;;
16862;SDS011;52193;48.216;-1.698;2023-04-03T02:03:31;8.02;;;3.78;;
16862;SDS011;52193;48.216;-1.698;2023-04-03T02:05:58;7.72;;;3.63;;
16862;SDS011;52193;48.216;-1.698;2023-04-03T02:08:27;6.20;;;3.37;;
16862;SDS011;52193;48.216;-1.698;2023-04-03T02:10:53;5.70;;;3.38;;
16862;SDS011;52193;48.216;-1.698;2023-04-03T02:13:20;7.15;;;3.60;;
16862;SDS011;52193;48.216;-1.698;2023-04-03T02:15:47;6.55;;;3.50;;
16862;SDS011;52193;48.216;-1.698;2023-04-03T02:18:14;7.13;;;3.50;;
16862;SDS011;52193;48.216;-1.698;2023-04-03T02:20:42;7.68;;;3.65;;
16862;SDS011;52193;48.216;-1.698;2023-04-03T02:23:09;7.20;;;3.83;;
16862;SDS011;52193;48.216;-1.698;2023-04-03T02:25:37;6.43;;;3.70;;
16862;SDS011;52193;48.216;-1.698;2023-04-03T02:28:04;7.07;;;3.38;;
16862;SDS011;52193;48.216;-1.698;2023-04-03T02:30:31;8.88;;;4.13;;
16862;SDS011;52193;48.216;-1.698;2023-04-03T02:32:58;6.68;;;3.40;;
16862;SDS011;52193;48.216;-1.698;2023-04-03T02:35:25;5.45;;;3.63;;
16862;SDS011;52193;48.216;-1.698;2023-04-03T02:37:52;7.50;;;3.70;;
16862;SDS011;52193;48.216;-1.698;2023-04-03T02:40:19;8.30;;;3.80;;
16862;SDS011;52193;48.216;-1.698;2023-04-03T02:42:47;5.68;;;3.53;;
16862;SDS011;52193;48.216;-1.698;2023-04-03T02:45:14;9.55;;;4.03;;
16862;SDS011;52193;48.216;-1.698;2023-04-03T02:47:41;8.68;;;3.85;;
16862;SDS011;52193;48.216;-1.698;2023-04-03T02:50:09;9.02;;;3.95;;
16862;SDS011;52193;48.216;-1.698;2023-04-03T02:52:36;7.07;;;3.60;;
16862;SDS011;52193;48.216;-1.698;2023-04-03T02:55:03;7.95;;;3.83;;
16862;SDS011;52193;48.216;-1.698;2023-04-03T02:57:31;7.93;;;4.03;;
16862;SDS011;52193;48.216;-1.698;2023-04-03T02:59:59;6.30;;;3.78;;
16862;SDS011;52193;48.216;-1.698;2023-04-03T03:02:26;5.72;;;3.42;;
16862;SDS011;52193;48.216;-1.698;2023-04-03T03:04:53;4.87;;;3.00;;
16862;SDS011;52193;48.216;-1.698;2023-04-03T03:07:19;6.07;;;3.38;;
16862;SDS011;52193;48.216;-1.698;2023-04-03T03:09:46;6.43;;;3.47;;
16862;SDS011;52193;48.216;-1.698;2023-04-03T03:12:13;5.80;;;3.30;;
16862;SDS011;52193;48.216;-1.698;2023-04-03T03:14:40;6.63;;;3.20;;
16862;SDS011;52193;48.216;-1.698;2023-04-03T03:17:09;5.47;;;3.03;;
16862;SDS011;52193;48.216;-1.698;2023-04-03T03:19:36;6.05;;;3.20;;
16862;SDS011;52193;48.216;-1.698;2023-04-03T03:22:03;6.28;;;3.42;;
16862;SDS011;52193;48.216;-1.698;2023-04-03T03:24:30;5.60;;;3.33;;
16862;SDS011;52193;48.216;-1.698;2023-04-03T03:26:57;7.00;;;3.15;;
16862;SDS011;52193;48.216;-1.698;2023-04-03T03:29:24;8.55;;;3.60;;
16862;SDS011;52193;48.216;-1.698;2023-04-03T03:31:51;6.20;;;3.35;;
16862;SDS011;52193;48.216;-1.698;2023-04-03T03:34:19;5.68;;;3.53;;
16862;SDS011;52193;48.216;-1.698;2023-04-03T03:36:46;5.68;;;3.05;;
16862;SDS011;52193;48.216;-1.698;2023-04-03T03:39:13;7.53;;;3.50;;
16862;SDS011;52193;48.216;-1.698;2023-04-03T03:41:40;6.45;;;3.42;;
16862;SDS011;52193;48.216;-1.698;2023-04-03T03:44:07;5.63;;;3.33;;
16862;SDS011;52193;48.216;-1.698;2023-04-03T03:46:35;6.77;;;3.50;;
16862;SDS011;52193;48.216;-1.698;2023-04-03T03:49:01;6.22;;;3.50;;
16862;SDS011;52193;48.216;-1.698;2023-04-03T03:51:30;6.45;;;3.45;;
16862;SDS011;52193;48.216;-1.698;2023-04-03T03:53:57;6.13;;;3.15;;
16862;SDS011;52193;48.216;-1.698;2023-04-03T03:56:24;6.77;;;3.17;;
16862;SDS011;52193;48.216;-1.698;2023-04-03T03:58:51;6.45;;;3.47;;
16862;SDS011;52193;48.216;-1.698;2023-04-03T04:01:18;6.72;;;3.58;;
16862;SDS011;52193;48.216;-1.698;2023-04-03T04:03:45;6.10;;;3.40;;
16862;SDS011;52193;48.216;-1.698;2023-04-03T04:06:12;5.85;;;3.40;;
16862;SDS011;52193;48.216;-1.698;2023-04-03T04:08:41;6.10;;;3.50;;
16862;SDS011;52193;48.216;-1.698;2023-04-03T04:11:08;5.38;;;3.10;;
16862;SDS011;52193;48.216;-1.698;2023-04-03T04:13:35;5.70;;;3.33;;
16862;SDS011;52193;48.216;-1.698;2023-04-03T04:16:02;7.80;;;3.60;;
16862;SDS011;52193;48.216;-1.698;2023-04-03T04:18:29;6.00;;;3.17;;
16862;SDS011;52193;48.216;-1.698;2023-04-03T04:20:56;5.22;;;3.08;;
16862;SDS011;52193;48.216;-1.698;2023-04-03T04:23:23;7.05;;;3.30;;
16862;SDS011;52193;48.216;-1.698;2023-04-03T04:25:51;4.90;;;2.87;;
16862;SDS011;52193;48.216;-1.698;2023-04-03T04:28:18;5.32;;;3.50;;
16862;SDS011;52193;48.216;-1.698;2023-04-03T04:30:45;4.80;;;3.10;;
16862;SDS011;52193;48.216;-1.698;2023-04-03T04:33:12;4.35;;;2.90;;
16862;SDS011;52193;48.216;-1.698;2023-04-03T04:35:41;5.03;;;3.20;;
16862;SDS011;52193;48.216;-1.698;2023-04-03T04:38:08;6.32;;;3.42;;
16862;SDS011;52193;48.216;-1.698;2023-04-03T04:40:35;4.47;;;2.90;;
16862;SDS011;52193;48.216;-1.698;2023-04-03T04:43:04;5.00;;;3.00;;
16862;SDS011;52193;48.216;-1.698;2023-04-03T04:45:31;6.13;;;3.20;;
16862;SDS011;52193;48.216;-1.698;2023-04-03T04:47:58;4.65;;;2.88;;
16862;SDS011;52193;48.216;-1.698;2023-04-03T04:50:25;4.72;;;3.03;;
16862;SDS011;52193;48.216;-1.698;2023-04-03T04:52:52;4.07;;;2.88;;
16862;SDS011;52193;48.216;-1.698;2023-04-03T04:55:19;4.15;;;2.90;;
16862;SDS011;52193;48.216;-1.698;2023-04-03T04:57:46;4.97;;;3.00;;
16862;SDS011;52193;48.216;-1.698;2023-04-03T05:00:15;4.65;;;2.95;;
16862;SDS011;52193;48.216;-1.698;2023-04-03T05:02:42;5.35;;;3.35;;
16862;SDS011;52193;48.216;-1.698;2023-04-03T05:05:09;5.45;;;3.25;;
16862;SDS011;52193;48.216;-1.698;2023-04-03T05:07:36;4.93;;;3.03;;
16862;SDS011;52193;48.216;-1.698;2023-04-03T05:10:03;4.72;;;3.00;;
16862;SDS011;52193;48.216;-1.698;2023-04-03T05:12:31;5.32;;;3.38;;
16862;SDS011;52193;48.216;-1.698;2023-04-03T05:14:58;5.05;;;3.08;;
16862;SDS011;52193;48.216;-1.698;2023-04-03T05:17:26;4.32;;;3.05;;
16862;SDS011;52193;48.216;-1.698;2023-04-03T05:19:53;7.15;;;3.28;;
16862;SDS011;52193;48.216;-1.698;2023-04-03T05:22:20;5.43;;;3.20;;
16862;SDS011;52193;48.216;-1.698;2023-04-03T05:24:47;4.28;;;3.00;;
16862;SDS011;52193;48.216;-1.698;2023-04-03T05:27:14;6.30;;;3.30;;
16862;SDS011;52193;48.216;-1.698;2023-04-03T05:29:41;4.72;;;3.20;;
16862;SDS011;52193;48.216;-1.698;2023-04-03T05:32:09;5.85;;;3.42;;
16862;SDS011;52193;48.216;-1.698;2023-04-03T05:34:37;4.75;;;3.08;;
16862;SDS011;52193;48.216;-1.698;2023-04-03T05:37:04;4.45;;;3.33;;
16862;SDS011;52193;48.216;-1.698;2023-04-03T05:39:31;4.93;;;3.13;;
16862;SDS011;52193;48.216;-1.698;2023-04-03T05:41:59;7.75;;;3.42;;
16862;SDS011;52193;48.216;-1.698;2023-04-03T05:44:26;6.20;;;3.50;;
16862;SDS011;52193;48.216;-1.698;2023-04-03T05:46:53;5.60;;;3.10;;
16862;SDS011;52193;48.216;-1.698;2023-04-03T05:49:20;3.90;;;2.90;;
16862;SDS011;52193;48.216;-1.698;2023-04-03T05:51:48;3.85;;;2.83;;
16862;SDS011;52193;48.216;-1.698;2023-04-03T05:54:17;4.60;;;3.10;;
16862;SDS011;52193;48.216;-1.698;2023-04-03T05:56:48;4.60;;;3.08;;
16862;SDS011;52193;48.216;-1.698;2023-04-03T05:59:15;5.90;;;3.03;;
16862;SDS011;52193;48.216;-1.698;2023-04-03T06:01:42;5.97;;;3.33;;
16862;SDS011;52193;48.216;-1.698;2023-04-03T06:04:09;7.70;;;3.50;;
16862;SDS011;52193;48.216;-1.698;2023-04-03T06:06:42;4.50;;;3.00;;
16862;SDS011;52193;48.216;-1.698;2023-04-03T06:09:12;4.88;;;3.15;;
16862;SDS011;52193;48.216;-1.698;2023-04-03T06:11:39;4.65;;;2.90;;
16862;SDS011;52193;48.216;-1.698;2023-04-03T06:14:07;5.10;;;3.38;;
16862;SDS011;52193;48.216;-1.698;2023-04-03T06:16:34;5.18;;;3.20;;
16862;SDS011;52193;48.216;-1.698;2023-04-03T06:19:01;4.32;;;3.20;;
16862;SDS011;52193;48.216;-1.698;2023-04-03T06:21:29;5.10;;;3.10;;
16862;SDS011;52193;48.216;-1.698;2023-04-03T06:23:56;4.75;;;3.10;;
16862;SDS011;52193;48.216;-1.698;2023-04-03T06:26:24;3.17;;;2.63;;
16862;SDS011;52193;48.216;-1.698;2023-04-03T06:28:52;4.60;;;3.00;;
16862;SDS011;52193;48.216;-1.698;2023-04-03T06:31:19;3.47;;;2.90;;
16862;SDS011;52193;48.216;-1.698;2023-04-03T06:33:46;4.15;;;3.05;;
16862;SDS011;52193;48.216;-1.698;2023-04-03T06:36:13;4.05;;;2.80;;
16862;SDS011;52193;48.216;-1.698;2023-04-03T06:38:40;3.97;;;3.00;;
16862;SDS011;52193;48.216;-1.698;2023-04-03T06:41:07;4.38;;;3.05;;
16862;SDS011;52193;48.216;-1.698;2023-04-03T06:43:35;3.47;;;3.00;;
16862;SDS011;52193;48.216;-1.698;2023-04-03T06:46:02;3.10;;;2.80;;
16862;SDS011;52193;48.216;-1.698;2023-04-03T06:48:30;4.90;;;3.33;;
16862;SDS011;52193;48.216;-1.698;2023-04-03T06:50:57;3.80;;;3.40;;
16862;SDS011;52193;48.216;-1.698;2023-04-03T06:53:24;4.00;;;3.50;;
16862;SDS011;52193;48.216;-1.698;2023-04-03T06:55:51;4.13;;;3.45;;
16862;SDS011;52193;48.216;-1.698;2023-04-03T06:58:18;5.18;;;3.40;;
16862;SDS011;52193;48.216;-1.698;2023-04-03T07:00:46;4.13;;;3.10;;
16862;SDS011;52193;48.216;-1.698;2023-04-03T07:03:13;3.70;;;3.30;;
16862;SDS011;52193;48.216;-1.698;2023-04-03T07:05:41;5.00;;;3.53;;
16862;SDS011;52193;48.216;-1.698;2023-04-03T07:08:09;4.43;;;3.20;;
16862;SDS011;52193;48.216;-1.698;2023-04-03T07:10:37;4.60;;;3.60;;
16862;SDS011;52193;48.216;-1.698;2023-04-03T07:13:04;4.43;;;3.40;;
16862;SDS011;52193;48.216;-1.698;2023-04-03T07:15:31;3.92;;;3.33;;
16862;SDS011;52193;48.216;-1.698;2023-04-03T07:18:00;4.03;;;3.45;;
16862;SDS011;52193;48.216;-1.698;2023-04-03T07:20:26;3.58;;;3.28;;
16862;SDS011;52193;48.216;-1.698;2023-04-03T07:22:53;4.00;;;3.60;;
16862;SDS011;52193;48.216;-1.698;2023-04-03T07:25:20;3.65;;;3.35;;
16862;SDS011;52193;48.216;-1.698;2023-04-03T07:27:47;4.03;;;3.63;;
16862;SDS011;52193;48.216;-1.698;2023-04-03T07:30:15;3.80;;;3.50;;
16862;SDS011;52193;48.216;-1.698;2023-04-03T07:32:42;3.80;;;3.50;;
16862;SDS011;52193;48.216;-1.698;2023-04-03T07:35:11;4.50;;;3.97;;
16862;SDS011;52193;48.216;-1.698;2023-04-03T07:37:38;4.33;;;3.90;;
16862;SDS011;52193;48.216;-1.698;2023-04-03T07:40:06;5.50;;;4.50;;
16862;SDS011;52193;48.216;-1.698;2023-04-03T07:42:33;5.10;;;4.60;;
16862;SDS011;52193;48.216;-1.698;2023-04-03T07:45:01;5.03;;;4.53;;
16862;SDS011;52193;48.216;-1.698;2023-04-03T07:47:29;4.80;;;4.30;;
16862;SDS011;52193;48.216;-1.698;2023-04-03T07:49:56;4.90;;;4.50;;
16862;SDS011;52193;48.216;-1.698;2023-04-03T07:52:25;5.20;;;4.80;;
16862;SDS011;52193;48.216;-1.698;2023-04-03T07:54:52;5.10;;;4.70;;
16862;SDS011;52193;48.216;-1.698;2023-04-03T07:57:19;5.30;;;4.80;;
16862;SDS011;52193;48.216;-1.698;2023-04-03T07:59:45;4.97;;;4.57;;
16862;SDS011;52193;48.216;-1.698;2023-04-03T08:02:12;5.82;;;5.32;;
16862;SDS011;52193;48.216;-1.698;2023-04-03T08:04:39;5.93;;;5.43;;
16862;SDS011;52193;48.216;-1.698;2023-04-03T08:07:06;6.05;;;5.55;;
16862;SDS011;52193;48.216;-1.698;2023-04-03T08:09:34;5.78;;;5.35;;
16862;SDS011;52193;48.216;-1.698;2023-04-03T08:12:01;6.55;;;6.15;;
16862;SDS011;52193;48.216;-1.698;2023-04-03T08:14:30;5.90;;;5.50;;
16862;SDS011;52193;48.216;-1.698;2023-04-03T08:16:59;6.35;;;5.85;;
16862;SDS011;52193;48.216;-1.698;2023-04-03T08:19:27;6.22;;;5.82;;
16862;SDS011;52193;48.216;-1.698;2023-04-03T08:21:54;6.07;;;5.68;;
16862;SDS011;52193;48.216;-1.698;2023-04-03T08:24:22;6.72;;;6.22;;
16862;SDS011;52193;48.216;-1.698;2023-04-03T08:26:50;6.40;;;5.90;;
16862;SDS011;52193;48.216;-1.698;2023-04-03T08:29:17;6.78;;;6.28;;
16862;SDS011;52193;48.216;-1.698;2023-04-03T08:31:44;6.38;;;5.97;;
16862;SDS011;52193;48.216;-1.698;2023-04-03T08:34:11;6.75;;;6.25;;
16862;SDS011;52193;48.216;-1.698;2023-04-03T08:36:39;6.30;;;5.90;;
16862;SDS011;52193;48.216;-1.698;2023-04-03T08:39:06;6.32;;;5.93;;
16862;SDS011;52193;48.216;-1.698;2023-04-03T08:41:34;6.82;;;6.40;;
16862;SDS011;52193;48.216;-1.698;2023-04-03T08:46:59;6.57;;;6.15;;
16862;SDS011;52193;48.216;-1.698;2023-04-03T08:49:37;7.00;;;6.40;;
16862;SDS011;52193;48.216;-1.698;2023-04-03T08:52:12;6.72;;;6.32;;
16862;SDS011;52193;48.216;-1.698;2023-04-03T08:54:45;6.25;;;5.85;;
16862;SDS011;52193;48.216;-1.698;2023-04-03T08:57:16;7.80;;;7.30;;
16862;SDS011;52193;48.216;-1.698;2023-04-03T08:59:47;6.83;;;6.37;;
16862;SDS011;52193;48.216;-1.698;2023-04-03T09:02:21;6.83;;;6.43;;
16862;SDS011;52193;48.216;-1.698;2023-04-03T09:04:52;7.20;;;6.70;;
16862;SDS011;52193;48.216;-1.698;2023-04-03T09:07:21;8.70;;;8.10;;
16862;SDS011;52193;48.216;-1.698;2023-04-03T09:09:54;8.02;;;7.53;;
16862;SDS011;52193;48.216;-1.698;2023-04-03T09:12:24;7.30;;;6.90;;
16862;SDS011;52193;48.216;-1.698;2023-04-03T09:14:59;7.77;;;7.20;;
16862;SDS011;52193;48.216;-1.698;2023-04-03T09:17:35;8.23;;;7.72;;
16862;SDS011;52193;48.216;-1.698;2023-04-03T09:20:14;8.17;;;7.63;;
16862;SDS011;52193;48.216;-1.698;2023-04-03T09:22:46;8.38;;;7.78;;
16862;SDS011;52193;48.216;-1.698;2023-04-03T09:25:16;9.18;;;8.57;;
16862;SDS011;52193;48.216;-1.698;2023-04-03T09:27:46;8.80;;;8.20;;
16862;SDS011;52193;48.216;-1.698;2023-04-03T09:30:15;9.48;;;8.80;;
16862;SDS011;52193;48.216;-1.698;2023-04-03T09:32:44;10.07;;;9.27;;
16862;SDS011;52193;48.216;-1.698;2023-04-03T09:35:23;9.43;;;8.73;;
16862;SDS011;52193;48.216;-1.698;2023-04-03T09:37:52;9.23;;;8.52;;
16862;SDS011;52193;48.216;-1.698;2023-04-03T09:40:32;8.63;;;8.10;;
16862;SDS011;52193;48.216;-1.698;2023-04-03T09:43:19;8.95;;;8.35;;
16862;SDS011;52193;48.216;-1.698;2023-04-03T09:46:15;8.13;;;7.63;;
16862;SDS011;52193;48.216;-1.698;2023-04-03T09:48:49;8.45;;;7.88;;
16862;SDS011;52193;48.216;-1.698;2023-04-03T09:51:18;8.57;;;8.02;;
16862;SDS011;52193;48.216;-1.698;2023-04-03T09:53:45;8.63;;;8.02;;
16862;SDS011;52193;48.216;-1.698;2023-04-03T09:56:19;8.23;;;7.63;;
16862;SDS011;52193;48.216;-1.698;2023-04-03T09:58:48;7.88;;;7.47;;
16862;SDS011;52193;48.216;-1.698;2023-04-03T10:01:25;7.78;;;7.38;;
16862;SDS011;52193;48.216;-1.698;2023-04-03T10:04:04;9.20;;;8.60;;
16862;SDS011;52193;48.216;-1.698;2023-04-03T10:06:34;8.63;;;8.13;;
16862;SDS011;52193;48.216;-1.698;2023-04-03T10:09:06;8.40;;;7.90;;
16862;SDS011;52193;48.216;-1.698;2023-04-03T10:11:47;8.98;;;8.48;;
16862;SDS011;52193;48.216;-1.698;2023-04-03T10:14:24;9.27;;;8.68;;
16862;SDS011;52193;48.216;-1.698;2023-04-03T10:16:54;10.27;;;9.68;;
16862;SDS011;52193;48.216;-1.698;2023-04-03T10:19:32;10.20;;;9.60;;
16862;SDS011;52193;48.216;-1.698;2023-04-03T10:22:08;10.45;;;9.80;;
16862;SDS011;52193;48.216;-1.698;2023-04-03T10:24:47;9.50;;;8.90;;
16862;SDS011;52193;48.216;-1.698;2023-04-03T10:27:22;8.60;;;8.10;;
16862;SDS011;52193;48.216;-1.698;2023-04-03T10:29:59;7.72;;;7.22;;
16862;SDS011;52193;48.216;-1.698;2023-04-03T10:32:47;8.32;;;7.90;;
16862;SDS011;52193;48.216;-1.698;2023-04-03T10:35:25;8.20;;;7.70;;
16862;SDS011;52193;48.216;-1.698;2023-04-03T10:38:04;8.18;;;7.78;;
16862;SDS011;52193;48.216;-1.698;2023-04-03T10:40:42;9.52;;;8.93;;
16862;SDS011;52193;48.216;-1.698;2023-04-03T10:43:16;8.77;;;8.27;;
16862;SDS011;52193;48.216;-1.698;2023-04-03T10:45:53;8.13;;;7.72;;
16862;SDS011;52193;48.216;-1.698;2023-04-03T10:48:33;8.70;;;8.20;;
16862;SDS011;52193;48.216;-1.698;2023-04-03T10:51:12;8.23;;;7.82;;
16862;SDS011;52193;48.216;-1.698;2023-04-03T10:53:51;8.77;;;8.27;;
16862;SDS011;52193;48.216;-1.698;2023-04-03T10:56:25;9.15;;;8.65;;
16862;SDS011;52193;48.216;-1.698;2023-04-03T10:58:57;9.23;;;8.73;;
16862;SDS011;52193;48.216;-1.698;2023-04-03T11:01:30;8.80;;;8.30;;
16862;SDS011;52193;48.216;-1.698;2023-04-03T11:04:00;8.65;;;8.15;;
16862;SDS011;52193;48.216;-1.698;2023-04-03T11:06:32;8.97;;;8.47;;
16862;SDS011;52193;48.216;-1.698;2023-04-03T11:09:03;9.73;;;9.20;;
16862;SDS011;52193;48.216;-1.698;2023-04-03T11:11:37;8.60;;;8.10;;
16862;SDS011;52193;48.216;-1.698;2023-04-03T11:14:09;10.48;;;9.88;;
16862;SDS011;52193;48.216;-1.698;2023-04-03T11:16:42;10.30;;;9.70;;
16862;SDS011;52193;48.216;-1.698;2023-04-03T11:19:16;9.82;;;9.23;;
16862;SDS011;52193;48.216;-1.698;2023-04-03T11:21:49;9.25;;;8.65;;
16862;SDS011;52193;48.216;-1.698;2023-04-03T11:24:22;10.20;;;9.60;;
16862;SDS011;52193;48.216;-1.698;2023-04-03T11:26:51;10.50;;;9.80;;
16862;SDS011;52193;48.216;-1.698;2023-04-03T11:29:21;11.50;;;10.68;;
16862;SDS011;52193;48.216;-1.698;2023-04-03T11:31:59;12.88;;;11.82;;
16862;SDS011;52193;48.216;-1.698;2023-04-03T11:34:37;9.40;;;8.87;;
16862;SDS011;52193;48.216;-1.698;2023-04-03T11:37:11;10.60;;;9.90;;
16862;SDS011;52193;48.216;-1.698;2023-04-03T11:39:46;10.27;;;9.57;;
16862;SDS011;52193;48.216;-1.698;2023-04-03T11:42:17;10.90;;;10.18;;
16862;SDS011;52193;48.216;-1.698;2023-04-03T11:47:57;10.20;;;9.63;;
16862;SDS011;52193;48.216;-1.698;2023-04-03T11:50:43;8.52;;;8.02;;
16862;SDS011;52193;48.216;-1.698;2023-04-03T11:53:27;8.52;;;7.93;;
16862;SDS011;52193;48.216;-1.698;2023-04-03T11:55:58;9.00;;;8.40;;
16862;SDS011;52193;48.216;-1.698;2023-04-03T11:58:27;8.30;;;7.80;;
16862;SDS011;52193;48.216;-1.698;2023-04-03T12:00:56;8.50;;;8.00;;
16862;SDS011;52193;48.216;-1.698;2023-04-03T12:12:42;7.33;;;6.83;;
16862;SDS011;52193;48.216;-1.698;2023-04-03T12:21:23;6.57;;;6.18;;
16862;SDS011;52193;48.216;-1.698;2023-04-03T12:24:23;6.90;;;6.50;;
16862;SDS011;52193;48.216;-1.698;2023-04-03T12:27:02;7.18;;;6.70;;
16862;SDS011;52193;48.216;-1.698;2023-04-03T12:29:36;7.15;;;6.68;;
16862;SDS011;52193;48.216;-1.698;2023-04-03T12:32:13;6.50;;;6.10;;
16862;SDS011;52193;48.216;-1.698;2023-04-03T12:34:54;6.80;;;6.40;;
16862;SDS011;52193;48.216;-1.698;2023-04-03T12:37:39;7.78;;;7.18;;
16862;SDS011;52193;48.216;-1.698;2023-04-03T12:40:21;6.57;;;6.17;;
16862;SDS011;52193;48.216;-1.698;2023-04-03T12:43:08;6.10;;;5.70;;
16862;SDS011;52193;48.216;-1.698;2023-04-03T12:45:47;6.20;;;5.80;;
16862;SDS011;52193;48.216;-1.698;2023-04-03T12:48:21;6.30;;;5.90;;
16862;SDS011;52193;48.216;-1.698;2023-04-03T12:50:51;6.88;;;6.40;;
16862;SDS011;52193;48.216;-1.698;2023-04-03T12:53:19;6.15;;;5.75;;
16862;SDS011;52193;48.216;-1.698;2023-04-03T12:55:53;6.28;;;5.68;;
16862;SDS011;52193;48.216;-1.698;2023-04-03T12:58:22;6.35;;;5.95;;
16862;SDS011;52193;48.216;-1.698;2023-04-03T13:01:01;6.35;;;5.95;;
16862;SDS011;52193;48.216;-1.698;2023-04-03T13:03:29;5.70;;;5.30;;
16862;SDS011;52193;48.216;-1.698;2023-04-03T13:05:57;5.75;;;5.35;;
16862;SDS011;52193;48.216;-1.698;2023-04-03T13:08:26;6.25;;;5.78;;
16862;SDS011;52193;48.216;-1.698;2023-04-03T13:10:55;5.40;;;5.10;;
16862;SDS011;52193;48.216;-1.698;2023-04-03T13:13:27;5.60;;;5.30;;
16862;SDS011;52193;48.216;-1.698;2023-04-03T13:15:54;6.32;;;5.93;;
16862;SDS011;52193;48.216;-1.698;2023-04-03T13:18:26;5.38;;;5.07;;
16862;SDS011;52193;48.216;-1.698;2023-04-03T13:20:57;5.32;;;5.03;;
16862;SDS011;52193;48.216;-1.698;2023-04-03T13:23:29;5.35;;;5.03;;
16862;SDS011;52193;48.216;-1.698;2023-04-03T13:25:56;5.05;;;4.72;;
16862;SDS011;52193;48.216;-1.698;2023-04-03T13:28:29;5.88;;;5.57;;
16862;SDS011;52193;48.216;-1.698;2023-04-03T13:31:08;5.57;;;5.28;;
16862;SDS011;52193;48.216;-1.698;2023-04-03T13:33:51;5.18;;;4.80;;
16862;SDS011;52193;48.216;-1.698;2023-04-03T13:36:21;4.78;;;4.47;;
16862;SDS011;52193;48.216;-1.698;2023-04-03T13:38:59;5.03;;;4.72;;
16862;SDS011;52193;48.216;-1.698;2023-04-03T13:41:31;4.43;;;4.22;;
16862;SDS011;52193;48.216;-1.698;2023-04-03T13:44:24;5.03;;;4.72;;
16862;SDS011;52193;48.216;-1.698;2023-04-03T13:46:58;5.05;;;4.72;;
16862;SDS011;52193;48.216;-1.698;2023-04-03T13:49:31;4.47;;;4.18;;
16862;SDS011;52193;48.216;-1.698;2023-04-03T13:52:00;4.85;;;4.50;;
16862;SDS011;52193;48.216;-1.698;2023-04-03T13:54:30;4.70;;;4.40;;
16862;SDS011;52193;48.216;-1.698;2023-04-03T13:56:59;4.60;;;4.30;;
16862;SDS011;52193;48.216;-1.698;2023-04-03T13:59:29;4.75;;;4.45;;
16862;SDS011;52193;48.216;-1.698;2023-04-03T14:02:11;4.50;;;4.30;;
16862;SDS011;52193;48.216;-1.698;2023-04-03T14:04:46;4.65;;;4.35;;
16862;SDS011;52193;48.216;-1.698;2023-04-03T14:07:17;5.07;;;4.78;;
16862;SDS011;52193;48.216;-1.698;2023-04-03T14:09:45;4.70;;;4.40;;
16862;SDS011;52193;48.216;-1.698;2023-04-03T14:12:14;4.80;;;4.50;;
16862;SDS011;52193;48.216;-1.698;2023-04-03T14:14:46;7.55;;;5.53;;
16862;SDS011;52193;48.216;-1.698;2023-04-03T14:17:15;4.25;;;3.88;;
16862;SDS011;52193;48.216;-1.698;2023-04-03T14:19:43;4.22;;;3.92;;
16862;SDS011;52193;48.216;-1.698;2023-04-03T14:22:13;4.40;;;4.10;;
16862;SDS011;52193;48.216;-1.698;2023-04-03T14:24:42;4.85;;;4.50;;
16862;SDS011;52193;48.216;-1.698;2023-04-03T14:27:11;4.53;;;4.23;;
16862;SDS011;52193;48.216;-1.698;2023-04-03T14:29:42;4.15;;;3.85;;
16862;SDS011;52193;48.216;-1.698;2023-04-03T14:32:12;4.75;;;4.45;;
16862;SDS011;52193;48.216;-1.698;2023-04-03T14:34:40;5.00;;;4.60;;
16862;SDS011;52193;48.216;-1.698;2023-04-03T14:37:09;4.80;;;4.22;;
16862;SDS011;52193;48.216;-1.698;2023-04-03T14:39:37;4.10;;;3.70;;
16862;SDS011;52193;48.216;-1.698;2023-04-03T14:42:04;4.70;;;4.40;;
16862;SDS011;52193;48.216;-1.698;2023-04-03T14:44:33;4.55;;;4.25;;
16862;SDS011;52193;48.216;-1.698;2023-04-03T14:47:00;4.40;;;4.10;;
16862;SDS011;52193;48.216;-1.698;2023-04-03T14:49:29;4.45;;;4.05;;
16862;SDS011;52193;48.216;-1.698;2023-04-03T14:51:56;3.97;;;3.75;;
16862;SDS011;52193;48.216;-1.698;2023-04-03T14:54:23;4.65;;;4.35;;
16862;SDS011;52193;48.216;-1.698;2023-04-03T14:56:52;3.83;;;3.63;;
16862;SDS011;52193;48.216;-1.698;2023-04-03T14:59:20;3.63;;;3.33;;
16862;SDS011;52193;48.216;-1.698;2023-04-03T15:01:48;3.70;;;3.50;;
16862;SDS011;52193;48.216;-1.698;2023-04-03T15:04:15;3.40;;;3.20;;
16862;SDS011;52193;48.216;-1.698;2023-04-03T15:06:46;4.78;;;4.47;;
16862;SDS011;52193;48.216;-1.698;2023-04-03T15:09:17;4.18;;;3.88;;
16862;SDS011;52193;48.216;-1.698;2023-04-03T15:11:46;3.97;;;3.60;;
16862;SDS011;52193;48.216;-1.698;2023-04-03T15:14:13;4.07;;;3.03;;